Pincourt, Canada
Current Conditions -  °F | °C
As of 7:00 PM on Monday 20 Oct 2014 (Local Time) from CYUL Reporting Station
Overcast Overcast  
Wind Chill: 39°   Ceiling: 7800
Heat Index: 43°   Visibility: 15mi
Dew Point: 36°   Wind: 6mph
Humidity: 76%   Direction: 50°NE
Pressure: 29.93"   Gusts: NA
Location:  45.37°N, 73.98°W
Report Text: CYUL 202300Z 05005KT 15SM FEW060 BKN078 OVC090 06/02 A2993 RMK SC2AC4AC2 SLP138
Loading
Personal Weather Stations






























Interactive Weather Map
Tropical Storm Tracking
New forecast layout! Learn more

10-Day Weather Forecast

Advertisements
Track Severe Weather on mobile